Archival Weather

Tokyo Intl

Tokyo, Japan (RJTT)

Report from: Sunday, March 19, 2023 3:00 PM JST
Current time: Tuesday, July 16, 2024 5:24 PM JST

Current weather – Weather history – Daily summaries
Weather forecast

Temperature13.0°C (55.4°F)
Dew point-2.0°C (28.4°F)
Winds 4 kts (2.1 m/s, 4.6 mph) Vrb
Winds variableWinds variable from East-Northeast (70°) to Southeast (140°)
Visibility6.2 mi. (10 km)
Clouds Few clouds 3,000 ft. (914 m)
Altimeter30.03 in.Hg (1017 mB)
Relative humidity35 %
Density altitude-280 ft. (-85 m)
Remarks No significant changes expected in the next two hours
Flight conditions Visual Meteorological Conditions
Raw dataRJTT 190600Z 11004KT 070V140 9999 FEW030 13/M02 Q1017 NOSIG RMK 1CU030 A3003
An error has occurred. This application may no longer respond until reloaded. Reload 🗙